createdAt,value
2022-08-22T00:03:50.197Z,13.9
2022-08-22T00:08:50.208Z,13.9
2022-08-22T00:13:52.650Z,13.9
2022-08-22T00:18:53.478Z,13.9
2022-08-22T00:23:52.638Z,14
2022-08-22T00:28:50.388Z,13.9
2022-08-22T00:33:50.223Z,13.9
2022-08-22T00:38:50.225Z,13.9
2022-08-22T00:43:50.161Z,13.8
2022-08-22T00:48:50.255Z,13.9
2022-08-22T00:53:50.227Z,13.8
2022-08-22T00:58:50.244Z,13.8
2022-08-22T01:03:50.214Z,13.7
2022-08-22T01:08:50.190Z,13.8
2022-08-22T01:13:50.218Z,13.6
2022-08-22T01:18:50.230Z,13.6
2022-08-22T01:23:50.227Z,13.5
2022-08-22T01:28:50.231Z,13.5
2022-08-22T01:33:50.209Z,13.4
2022-08-22T01:38:50.248Z,13.4
2022-08-22T01:43:58.668Z,13.3
2022-08-22T01:48:50.253Z,13.3
2022-08-22T01:53:50.345Z,13.1
2022-08-22T01:58:50.253Z,13.1
2022-08-22T02:03:50.270Z,13.2
2022-08-22T02:08:50.255Z,13.1
2022-08-22T02:13:50.209Z,13.1
2022-08-22T02:18:50.270Z,13.1
2022-08-22T02:23:50.239Z,12.9
2022-08-22T02:28:50.242Z,12.9
2022-08-22T02:33:50.247Z,12.9
2022-08-22T02:38:50.295Z,12.8
2022-08-22T02:43:50.307Z,12.8
2022-08-22T02:48:50.242Z,12.7
2022-08-22T02:53:50.288Z,12.7
2022-08-22T02:58:50.235Z,12.6
2022-08-22T03:03:50.333Z,12.6
2022-08-22T03:08:50.978Z,12.5
2022-08-22T03:13:50.258Z,12.4
2022-08-22T03:18:50.319Z,12.4
2022-08-22T03:23:50.271Z,12.4
2022-08-22T03:28:52.606Z,12.3
2022-08-22T03:33:50.321Z,12.4
2022-08-22T03:38:50.281Z,12.4
2022-08-22T03:43:50.346Z,12.6
2022-08-22T03:48:50.265Z,12.7
2022-08-22T03:53:50.286Z,12.9
2022-08-22T03:58:50.304Z,12.8
2022-08-22T04:03:50.298Z,12.6
2022-08-22T04:08:50.316Z,12.6
2022-08-22T04:13:50.242Z,12.4
2022-08-22T04:18:50.270Z,12.3
2022-08-22T04:23:50.272Z,12.3
2022-08-22T04:28:50.286Z,12.3
2022-08-22T04:33:50.500Z,12.3
2022-08-22T04:38:50.302Z,12.1
2022-08-22T04:43:50.271Z,12.1
2022-08-22T04:48:50.317Z,12.1
2022-08-22T04:53:50.279Z,12.1
2022-08-22T04:58:50.769Z,12.3
2022-08-22T05:03:50.290Z,12.3
2022-08-22T05:08:53.908Z,12.3
2022-08-22T05:13:50.275Z,12.4
2022-08-22T05:18:50.600Z,12.5
2022-08-22T05:23:50.809Z,12.6
2022-08-22T05:28:53.055Z,12.7
2022-08-22T05:33:50.383Z,12.9
2022-08-22T05:38:50.311Z,12.9
2022-08-22T05:43:50.344Z,13.1
2022-08-22T05:48:50.559Z,13.1
2022-08-22T05:53:50.356Z,13.1
2022-08-22T05:58:50.349Z,13.4
2022-08-22T06:03:50.275Z,13.5
2022-08-22T06:08:50.354Z,13.7
2022-08-22T06:13:50.275Z,13.9
2022-08-22T06:18:50.620Z,14.1
2022-08-22T06:23:50.265Z,14.3
2022-08-22T06:28:54.843Z,14.6
2022-08-22T06:33:50.334Z,14.8
2022-08-22T06:38:50.333Z,15
2022-08-22T06:43:50.295Z,15.1
2022-08-22T06:48:50.328Z,15.4
2022-08-22T06:53:50.613Z,15.8
2022-08-22T06:58:50.339Z,15.9
2022-08-22T07:03:50.363Z,16
2022-08-22T07:08:50.351Z,16.3
2022-08-22T07:13:50.296Z,16.4
2022-08-22T07:18:50.325Z,16.6
2022-08-22T07:23:50.402Z,17
2022-08-22T07:28:51.042Z,17.3
2022-08-22T07:33:50.352Z,17.6
2022-08-22T07:38:50.634Z,18.1
2022-08-22T07:43:50.376Z,18.1
2022-08-22T07:49:07.958Z,18.3
2022-08-22T07:53:50.352Z,18.6
2022-08-22T07:58:50.425Z,18.9
2022-08-22T08:03:50.328Z,19.1
2022-08-22T08:08:50.321Z,19.5
2022-08-22T08:13:50.338Z,20.1
2022-08-22T08:18:50.343Z,20.3
2022-08-22T08:23:50.671Z,20.3
2022-08-22T08:28:50.381Z,20.8
2022-08-22T08:33:50.440Z,20.8
2022-08-22T08:38:50.377Z,21.1
2022-08-22T08:43:50.344Z,21.5
2022-08-22T08:48:50.351Z,21.3
2022-08-22T08:53:50.976Z,21.4
2022-08-22T08:58:50.910Z,21.4
2022-08-22T09:03:51.338Z,21.8
2022-08-22T09:08:55.761Z,22.1
2022-08-22T09:13:50.403Z,22.1
2022-08-22T09:18:50.366Z,22.3
2022-08-22T09:23:53.343Z,22.6
2022-08-22T09:28:50.383Z,22.6
2022-08-22T09:33:50.338Z,22.5
2022-08-22T09:38:50.373Z,22.3
2022-08-22T09:43:50.339Z,23.1
2022-08-22T09:48:50.431Z,23.3
2022-08-22T09:53:50.396Z,24.2
2022-08-22T09:58:50.501Z,24.6
2022-08-22T10:03:50.429Z,24.6
2022-08-22T10:08:50.377Z,24.6
2022-08-22T10:13:51.922Z,25.3
2022-08-22T10:18:52.517Z,23.8
2022-08-22T10:23:50.434Z,25.1
2022-08-22T10:28:50.415Z,25.9
2022-08-22T10:33:50.478Z,25.9
2022-08-22T10:38:50.433Z,25.2
2022-08-22T10:43:52.710Z,25.1
2022-08-22T10:48:50.471Z,25.1
2022-08-22T10:53:50.510Z,25.5
2022-08-22T10:58:50.452Z,26.2
2022-08-22T11:03:50.394Z,26.1
2022-08-22T11:08:50.512Z,25.9
2022-08-22T11:13:50.414Z,25.8
2022-08-22T11:18:57.900Z,27.2
2022-08-22T11:23:50.404Z,27.4
2022-08-22T11:28:50.877Z,27.4
2022-08-22T11:33:50.449Z,26.9
2022-08-22T11:38:50.477Z,27.3
2022-08-22T11:43:50.454Z,28.2
2022-08-22T11:48:50.401Z,28.6
2022-08-22T11:53:50.388Z,29.2
2022-08-22T11:58:50.506Z,26.6
2022-08-22T12:03:51.084Z,27.2
2022-08-22T12:08:50.448Z,27.8
2022-08-22T12:13:50.465Z,28.6
2022-08-22T12:18:52.786Z,30
2022-08-22T12:23:50.518Z,30.8
2022-08-22T12:28:50.513Z,30.3
2022-08-22T12:33:50.487Z,29.2
2022-08-22T12:38:50.887Z,29.4
2022-08-22T12:43:50.459Z,28.6
2022-08-22T12:48:50.483Z,28.8
2022-08-22T12:53:50.553Z,27.5
2022-08-22T12:58:51.305Z,30.1
2022-08-22T13:03:50.516Z,29.6
2022-08-22T13:08:50.454Z,28.6
2022-08-22T13:13:51.507Z,28.6
2022-08-22T13:18:53.413Z,29.1
2022-08-22T13:23:50.770Z,28.9
2022-08-22T13:29:00.235Z,29.7
2022-08-22T13:33:50.429Z,31.1
2022-08-22T13:38:50.477Z,30.3
2022-08-22T13:43:50.465Z,29.9
2022-08-22T13:48:50.509Z,29.3
2022-08-22T13:54:01.145Z,28.2
2022-08-22T13:58:50.573Z,28.6
2022-08-22T14:03:50.559Z,28.7
2022-08-22T14:08:50.602Z,27.8
2022-08-22T14:13:50.588Z,27.4
2022-08-22T14:18:51.563Z,27.9
2022-08-22T14:23:50.494Z,28
2022-08-22T14:28:50.434Z,28.6
2022-08-22T14:33:50.498Z,29
2022-08-22T14:38:50.488Z,29.1
2022-08-22T14:43:50.442Z,28.9
2022-08-22T14:48:50.540Z,28.8
2022-08-22T14:53:50.506Z,28.5
2022-08-22T14:58:50.655Z,27.8
2022-08-22T15:03:50.671Z,27.6
2022-08-22T15:08:50.453Z,27.1
2022-08-22T15:13:50.482Z,27
2022-08-22T15:18:51.651Z,26.7
2022-08-22T15:23:50.458Z,26.3
2022-08-22T15:28:52.926Z,26.4
2022-08-22T15:33:50.821Z,26
2022-08-22T15:38:50.562Z,25.6
2022-08-22T15:43:50.534Z,25.3
2022-08-22T15:48:52.375Z,25.2
2022-08-22T15:53:50.485Z,25.4
2022-08-22T15:58:50.574Z,25.4
2022-08-22T16:03:50.607Z,25.7
2022-08-22T16:08:50.609Z,26.6
2022-08-22T16:13:50.521Z,25.8
2022-08-22T16:18:50.659Z,25
2022-08-22T16:23:50.554Z,25.3
2022-08-22T16:28:58.093Z,25.4
2022-08-22T16:33:50.538Z,24.9
2022-08-22T16:38:50.534Z,25.6
2022-08-22T16:43:52.788Z,24.9
2022-08-22T16:48:50.590Z,24.8
2022-08-22T16:53:50.568Z,24.7
2022-08-22T16:58:58.980Z,24.8
2022-08-22T17:03:50.565Z,24.4
2022-08-22T17:08:50.554Z,23.8
2022-08-22T17:13:50.612Z,23.6
2022-08-22T17:18:50.533Z,23.4
2022-08-22T17:23:50.558Z,23.2
2022-08-22T17:28:50.553Z,23.1
2022-08-22T17:33:51.792Z,22.9
2022-08-22T17:38:50.543Z,22.8
2022-08-22T17:43:50.530Z,22.7
2022-08-22T17:48:50.578Z,22.5
2022-08-22T17:53:50.571Z,22.3
2022-08-22T17:58:50.581Z,22.1
2022-08-22T18:03:50.606Z,21.8
2022-08-22T18:09:14.430Z,21.6
2022-08-22T18:13:50.583Z,21.4
2022-08-22T18:18:50.613Z,21.1
2022-08-22T18:23:50.627Z,21
2022-08-22T18:28:50.559Z,20.8
2022-08-22T18:33:50.613Z,19.9
2022-08-22T18:38:50.577Z,19.1
2022-08-22T18:43:50.551Z,19.2
2022-08-22T18:49:13.911Z,19.1
2022-08-22T18:53:50.560Z,19.1
2022-08-22T18:58:54.182Z,19
2022-08-22T19:03:50.576Z,18.9
2022-08-22T19:08:53.576Z,18.9
2022-08-22T19:13:50.613Z,18.8
2022-08-22T19:18:50.652Z,18.7
2022-08-22T19:23:50.600Z,18.8
2022-08-22T19:28:50.615Z,18.8
2022-08-22T19:33:50.586Z,18.6
2022-08-22T19:43:50.585Z,18.3
2022-08-22T19:48:50.609Z,18.1
2022-08-22T19:53:50.598Z,18.1
2022-08-22T19:58:50.613Z,18
2022-08-22T20:03:50.591Z,17.9
2022-08-22T20:08:50.579Z,17.8
2022-08-22T20:13:50.650Z,17.6
2022-08-22T20:19:00.460Z,17.4
2022-08-22T20:23:51.400Z,17.3
2022-08-22T20:28:50.628Z,17.2
2022-08-22T20:33:50.587Z,17.1
2022-08-22T20:38:55.499Z,17.2
2022-08-22T20:43:50.582Z,17
2022-08-22T20:48:50.687Z,17
2022-08-22T20:53:50.681Z,16.9
2022-08-22T20:58:50.693Z,16.9
2022-08-22T21:03:50.670Z,16.8
2022-08-22T21:08:50.637Z,16.8
2022-08-22T21:13:50.674Z,16.6
2022-08-22T21:18:50.660Z,16.4
2022-08-22T21:23:50.692Z,16.4
2022-08-22T21:28:51.128Z,16.4
2022-08-22T21:33:50.673Z,16.3
2022-08-22T21:38:50.686Z,16.1
2022-08-22T21:43:53.820Z,15.9
2022-08-22T21:48:50.798Z,15.8
2022-08-22T21:53:53.414Z,15.8
2022-08-22T21:58:50.712Z,15.6
2022-08-22T22:03:50.657Z,15.4
2022-08-22T22:08:50.707Z,15.4
2022-08-22T22:13:50.637Z,15.3
2022-08-22T22:18:50.676Z,15.3
2022-08-22T22:23:50.745Z,15.2
2022-08-22T22:28:50.642Z,15.2
2022-08-22T22:33:50.616Z,15.1
2022-08-22T22:38:51.608Z,15.2
2022-08-22T22:43:50.682Z,15
2022-08-22T22:48:50.662Z,15
2022-08-22T22:53:50.705Z,14.9
2022-08-22T22:58:50.819Z,14.8
2022-08-22T23:03:50.688Z,14.7
2022-08-22T23:08:50.684Z,14.5
2022-08-22T23:13:50.622Z,14.4
2022-08-22T23:18:50.960Z,14.3
2022-08-22T23:23:50.690Z,14.3
2022-08-22T23:28:50.812Z,14.3
2022-08-22T23:33:50.639Z,14.2
2022-08-22T23:38:50.704Z,14.1
2022-08-22T23:43:50.648Z,14
2022-08-22T23:48:50.691Z,14
2022-08-22T23:53:50.669Z,13.9
2022-08-22T23:58:52.096Z,13.9
